sensor_id;sensor_type;location;lat;lon;timestamp;temperature;humidity
21559;DHT22;10940;48.890;8.240;2022-10-26T00:01:29;13.30;99.90
21559;DHT22;10940;48.890;8.240;2022-10-26T00:03:55;13.20;99.90
21559;DHT22;10940;48.890;8.240;2022-10-26T00:06:23;13.20;99.90
21559;DHT22;10940;48.890;8.240;2022-10-26T00:08:55;13.20;99.90
21559;DHT22;10940;48.890;8.240;2022-10-26T00:11:21;13.10;99.90
21559;DHT22;10940;48.890;8.240;2022-10-26T00:13:47;13.10;99.90
21559;DHT22;10940;48.890;8.240;2022-10-26T00:16:20;13.10;99.90
21559;DHT22;10940;48.890;8.240;2022-10-26T00:18:46;13.00;99.90
21559;DHT22;10940;48.890;8.240;2022-10-26T00:21:13;13.00;99.90
21559;DHT22;10940;48.890;8.240;2022-10-26T00:23:39;13.00;99.90
21559;DHT22;10940;48.890;8.240;2022-10-26T00:26:05;13.00;99.90
21559;DHT22;10940;48.890;8.240;2022-10-26T00:28:31;13.00;99.90
21559;DHT22;10940;48.890;8.240;2022-10-26T00:31:06;12.90;99.90
21559;DHT22;10940;48.890;8.240;2022-10-26T00:33:33;12.90;99.90
21559;DHT22;10940;48.890;8.240;2022-10-26T00:35:59;12.90;99.90
21559;DHT22;10940;48.890;8.240;2022-10-26T00:38:24;12.90;99.90
21559;DHT22;10940;48.890;8.240;2022-10-26T00:40:50;12.90;99.90
21559;DHT22;10940;48.890;8.240;2022-10-26T00:43:33;12.80;99.90
21559;DHT22;10940;48.890;8.240;2022-10-26T00:45:59;12.80;99.90
21559;DHT22;10940;48.890;8.240;2022-10-26T00:48:35;12.80;99.90
21559;DHT22;10940;48.890;8.240;2022-10-26T00:51:06;12.80;99.90
21559;DHT22;10940;48.890;8.240;2022-10-26T00:53:32;12.80;99.90
21559;DHT22;10940;48.890;8.240;2022-10-26T00:55:59;12.80;99.90
21559;DHT22;10940;48.890;8.240;2022-10-26T00:58:25;12.80;99.90
21559;DHT22;10940;48.890;8.240;2022-10-26T01:00:51;12.90;99.90
21559;DHT22;10940;48.890;8.240;2022-10-26T01:03:17;12.90;99.90
21559;DHT22;10940;48.890;8.240;2022-10-26T01:05:46;12.90;99.90
21559;DHT22;10940;48.890;8.240;2022-10-26T01:08:15;12.90;99.90
21559;DHT22;10940;48.890;8.240;2022-10-26T01:10:42;12.90;99.90
21559;DHT22;10940;48.890;8.240;2022-10-26T01:13:08;12.90;99.90
21559;DHT22;10940;48.890;8.240;2022-10-26T01:18:44;12.90;99.90
21559;DHT22;10940;48.890;8.240;2022-10-26T01:21:38;12.80;99.90
21559;DHT22;10940;48.890;8.240;2022-10-26T01:27:12;12.90;99.90
21559;DHT22;10940;48.890;8.240;2022-10-26T01:32:36;12.90;99.90
21559;DHT22;10940;48.890;8.240;2022-10-26T01:35:26;12.90;99.90
21559;DHT22;10940;48.890;8.240;2022-10-26T01:38:07;12.90;99.90
21559;DHT22;10940;48.890;8.240;2022-10-26T01:40:39;12.90;99.90
21559;DHT22;10940;48.890;8.240;2022-10-26T01:43:07;12.90;99.90
21559;DHT22;10940;48.890;8.240;2022-10-26T01:45:37;12.90;99.90
21559;DHT22;10940;48.890;8.240;2022-10-26T01:48:05;12.90;99.90
21559;DHT22;10940;48.890;8.240;2022-10-26T01:50:33;12.90;99.90
21559;DHT22;10940;48.890;8.240;2022-10-26T01:52:59;12.90;99.90
21559;DHT22;10940;48.890;8.240;2022-10-26T01:55:47;13.00;99.90
21559;DHT22;10940;48.890;8.240;2022-10-26T02:06:51;13.00;99.90
21559;DHT22;10940;48.890;8.240;2022-10-26T02:12:17;12.90;99.90
21559;DHT22;10940;48.890;8.240;2022-10-26T02:14:49;13.00;99.90
21559;DHT22;10940;48.890;8.240;2022-10-26T02:17:36;13.10;99.90
21559;DHT22;10940;48.890;8.240;2022-10-26T02:20:05;13.10;99.90
21559;DHT22;10940;48.890;8.240;2022-10-26T02:22:37;13.10;99.90
21559;DHT22;10940;48.890;8.240;2022-10-26T02:25:08;13.00;99.90
21559;DHT22;10940;48.890;8.240;2022-10-26T02:27:39;12.90;99.90
21559;DHT22;10940;48.890;8.240;2022-10-26T02:30:06;12.80;99.90
21559;DHT22;10940;48.890;8.240;2022-10-26T02:32:34;12.70;99.90
21559;DHT22;10940;48.890;8.240;2022-10-26T02:35:03;12.60;99.90
21559;DHT22;10940;48.890;8.240;2022-10-26T02:37:31;12.50;99.90
21559;DHT22;10940;48.890;8.240;2022-10-26T02:39:59;12.60;99.90
21559;DHT22;10940;48.890;8.240;2022-10-26T02:42:27;12.50;99.90
21559;DHT22;10940;48.890;8.240;2022-10-26T02:45:01;12.60;99.90
21559;DHT22;10940;48.890;8.240;2022-10-26T02:47:28;12.50;99.90
21559;DHT22;10940;48.890;8.240;2022-10-26T02:49:54;12.60;99.90
21559;DHT22;10940;48.890;8.240;2022-10-26T02:52:30;12.60;99.90
21559;DHT22;10940;48.890;8.240;2022-10-26T02:55:03;12.60;99.90
21559;DHT22;10940;48.890;8.240;2022-10-26T02:57:38;12.60;99.90
21559;DHT22;10940;48.890;8.240;2022-10-26T03:00:09;12.60;99.90
21559;DHT22;10940;48.890;8.240;2022-10-26T03:02:36;12.50;99.90
21559;DHT22;10940;48.890;8.240;2022-10-26T03:05:14;12.60;99.90
21559;DHT22;10940;48.890;8.240;2022-10-26T03:07:42;12.60;99.90
21559;DHT22;10940;48.890;8.240;2022-10-26T03:10:08;12.60;99.90
21559;DHT22;10940;48.890;8.240;2022-10-26T03:12:34;12.50;99.90
21559;DHT22;10940;48.890;8.240;2022-10-26T03:14:59;12.50;99.90
21559;DHT22;10940;48.890;8.240;2022-10-26T03:17:25;12.60;99.90
21559;DHT22;10940;48.890;8.240;2022-10-26T03:19:50;12.50;99.90
21559;DHT22;10940;48.890;8.240;2022-10-26T03:22:16;12.50;99.90
21559;DHT22;10940;48.890;8.240;2022-10-26T03:24:42;12.50;99.90
21559;DHT22;10940;48.890;8.240;2022-10-26T03:27:07;12.50;99.90
21559;DHT22;10940;48.890;8.240;2022-10-26T03:29:33;12.60;99.90
21559;DHT22;10940;48.890;8.240;2022-10-26T03:31:58;12.60;99.90
21559;DHT22;10940;48.890;8.240;2022-10-26T03:34:24;12.60;99.90
21559;DHT22;10940;48.890;8.240;2022-10-26T03:36:49;12.70;99.90
21559;DHT22;10940;48.890;8.240;2022-10-26T03:39:15;12.60;99.90
21559;DHT22;10940;48.890;8.240;2022-10-26T03:41:41;12.60;99.90
21559;DHT22;10940;48.890;8.240;2022-10-26T03:44:06;12.70;99.90
21559;DHT22;10940;48.890;8.240;2022-10-26T03:46:32;12.60;99.90
21559;DHT22;10940;48.890;8.240;2022-10-26T03:48:58;12.60;99.90
21559;DHT22;10940;48.890;8.240;2022-10-26T03:51:23;12.60;99.90
21559;DHT22;10940;48.890;8.240;2022-10-26T03:53:49;12.70;99.90
21559;DHT22;10940;48.890;8.240;2022-10-26T03:56:14;12.70;99.90
21559;DHT22;10940;48.890;8.240;2022-10-26T03:58:40;12.70;99.90
21559;DHT22;10940;48.890;8.240;2022-10-26T04:01:05;12.70;99.90
21559;DHT22;10940;48.890;8.240;2022-10-26T04:03:31;12.70;99.90
21559;DHT22;10940;48.890;8.240;2022-10-26T04:06:00;12.70;99.90
21559;DHT22;10940;48.890;8.240;2022-10-26T04:08:25;12.80;99.90
21559;DHT22;10940;48.890;8.240;2022-10-26T04:10:51;12.70;99.90
21559;DHT22;10940;48.890;8.240;2022-10-26T04:13:17;12.80;99.90
21559;DHT22;10940;48.890;8.240;2022-10-26T04:15:42;12.80;99.90
21559;DHT22;10940;48.890;8.240;2022-10-26T04:18:08;12.70;99.90
21559;DHT22;10940;48.890;8.240;2022-10-26T04:20:37;12.70;99.90
21559;DHT22;10940;48.890;8.240;2022-10-26T04:23:05;12.70;99.90
21559;DHT22;10940;48.890;8.240;2022-10-26T04:25:32;12.70;99.90
21559;DHT22;10940;48.890;8.240;2022-10-26T04:27:58;12.70;99.90
21559;DHT22;10940;48.890;8.240;2022-10-26T04:30:24;12.70;99.90
21559;DHT22;10940;48.890;8.240;2022-10-26T04:32:50;12.80;99.90
21559;DHT22;10940;48.890;8.240;2022-10-26T04:35:16;12.80;99.90
21559;DHT22;10940;48.890;8.240;2022-10-26T04:37:42;12.90;99.90
21559;DHT22;10940;48.890;8.240;2022-10-26T04:40:08;12.90;99.90
21559;DHT22;10940;48.890;8.240;2022-10-26T04:42:44;12.80;99.90
21559;DHT22;10940;48.890;8.240;2022-10-26T04:45:11;12.90;99.90
21559;DHT22;10940;48.890;8.240;2022-10-26T04:47:38;12.80;99.90
21559;DHT22;10940;48.890;8.240;2022-10-26T04:50:04;12.80;99.90
21559;DHT22;10940;48.890;8.240;2022-10-26T04:52:30;12.90;99.90
21559;DHT22;10940;48.890;8.240;2022-10-26T04:54:55;12.90;99.90
21559;DHT22;10940;48.890;8.240;2022-10-26T04:57:21;13.00;99.90
21559;DHT22;10940;48.890;8.240;2022-10-26T04:59:46;13.00;99.90
21559;DHT22;10940;48.890;8.240;2022-10-26T05:02:12;13.00;99.90
21559;DHT22;10940;48.890;8.240;2022-10-26T05:04:38;13.10;99.90
21559;DHT22;10940;48.890;8.240;2022-10-26T05:07:03;13.10;99.90
21559;DHT22;10940;48.890;8.240;2022-10-26T05:09:29;13.10;99.90
21559;DHT22;10940;48.890;8.240;2022-10-26T05:11:54;13.10;99.90
21559;DHT22;10940;48.890;8.240;2022-10-26T05:14:20;13.10;99.90
21559;DHT22;10940;48.890;8.240;2022-10-26T05:16:45;13.10;99.90
21559;DHT22;10940;48.890;8.240;2022-10-26T05:19:11;13.10;99.90
21559;DHT22;10940;48.890;8.240;2022-10-26T05:21:37;13.10;99.90
21559;DHT22;10940;48.890;8.240;2022-10-26T05:24:02;13.10;99.90
21559;DHT22;10940;48.890;8.240;2022-10-26T05:26:28;13.00;99.90
21559;DHT22;10940;48.890;8.240;2022-10-26T05:28:54;13.00;99.90
21559;DHT22;10940;48.890;8.240;2022-10-26T05:31:20;13.00;99.90
21559;DHT22;10940;48.890;8.240;2022-10-26T05:33:50;12.90;99.90
21559;DHT22;10940;48.890;8.240;2022-10-26T05:36:18;12.90;99.90
21559;DHT22;10940;48.890;8.240;2022-10-26T05:38:44;12.90;99.90
21559;DHT22;10940;48.890;8.240;2022-10-26T05:41:10;12.90;99.90
21559;DHT22;10940;48.890;8.240;2022-10-26T05:43:35;12.80;99.90
21559;DHT22;10940;48.890;8.240;2022-10-26T05:46:01;12.90;99.90
21559;DHT22;10940;48.890;8.240;2022-10-26T05:48:27;12.80;99.90
21559;DHT22;10940;48.890;8.240;2022-10-26T05:50:52;12.80;99.90
21559;DHT22;10940;48.890;8.240;2022-10-26T05:53:18;12.80;99.90
21559;DHT22;10940;48.890;8.240;2022-10-26T05:55:44;12.80;99.90
21559;DHT22;10940;48.890;8.240;2022-10-26T05:58:11;12.90;99.90
21559;DHT22;10940;48.890;8.240;2022-10-26T06:00:49;12.80;99.90
21559;DHT22;10940;48.890;8.240;2022-10-26T06:03:27;12.90;99.90
21559;DHT22;10940;48.890;8.240;2022-10-26T06:05:58;12.90;99.90
21559;DHT22;10940;48.890;8.240;2022-10-26T06:08:25;12.90;99.90
21559;DHT22;10940;48.890;8.240;2022-10-26T06:10:52;12.90;99.90
21559;DHT22;10940;48.890;8.240;2022-10-26T06:13:19;12.90;99.90
21559;DHT22;10940;48.890;8.240;2022-10-26T06:16:10;12.90;99.90
21559;DHT22;10940;48.890;8.240;2022-10-26T06:24:13;12.90;99.90
21559;DHT22;10940;48.890;8.240;2022-10-26T06:32:00;12.80;99.90
21559;DHT22;10940;48.890;8.240;2022-10-26T06:34:28;12.80;99.90
21559;DHT22;10940;48.890;8.240;2022-10-26T06:36:58;12.80;99.90
21559;DHT22;10940;48.890;8.240;2022-10-26T06:39:26;12.80;99.90
21559;DHT22;10940;48.890;8.240;2022-10-26T06:41:54;12.90;99.90
21559;DHT22;10940;48.890;8.240;2022-10-26T06:44:22;12.90;99.90
21559;DHT22;10940;48.890;8.240;2022-10-26T06:47:05;12.90;99.90
21559;DHT22;10940;48.890;8.240;2022-10-26T06:52:09;12.90;99.90
21559;DHT22;10940;48.890;8.240;2022-10-26T06:54:51;12.90;99.90
21559;DHT22;10940;48.890;8.240;2022-10-26T06:57:22;13.00;99.90
21559;DHT22;10940;48.890;8.240;2022-10-26T06:59:57;13.00;99.90
21559;DHT22;10940;48.890;8.240;2022-10-26T07:02:25;13.00;99.90
21559;DHT22;10940;48.890;8.240;2022-10-26T07:04:50;13.00;99.90
21559;DHT22;10940;48.890;8.240;2022-10-26T07:07:20;13.10;99.90
21559;DHT22;10940;48.890;8.240;2022-10-26T07:09:47;13.10;99.90
21559;DHT22;10940;48.890;8.240;2022-10-26T07:12:12;13.10;99.90
21559;DHT22;10940;48.890;8.240;2022-10-26T07:14:38;13.20;99.90
21559;DHT22;10940;48.890;8.240;2022-10-26T07:17:04;13.20;99.90
21559;DHT22;10940;48.890;8.240;2022-10-26T07:19:30;13.20;99.90
21559;DHT22;10940;48.890;8.240;2022-10-26T07:21:56;13.20;99.90
21559;DHT22;10940;48.890;8.240;2022-10-26T07:24:24;13.20;99.90
21559;DHT22;10940;48.890;8.240;2022-10-26T07:26:49;13.20;99.90
21559;DHT22;10940;48.890;8.240;2022-10-26T07:29:15;13.30;99.90
21559;DHT22;10940;48.890;8.240;2022-10-26T07:31:42;13.30;99.90
21559;DHT22;10940;48.890;8.240;2022-10-26T07:34:08;13.30;99.90
21559;DHT22;10940;48.890;8.240;2022-10-26T07:36:34;13.40;99.90
21559;DHT22;10940;48.890;8.240;2022-10-26T07:39:04;13.40;99.90
21559;DHT22;10940;48.890;8.240;2022-10-26T07:41:29;13.50;99.90
21559;DHT22;10940;48.890;8.240;2022-10-26T07:43:55;13.60;99.90
21559;DHT22;10940;48.890;8.240;2022-10-26T07:46:21;13.60;99.90
21559;DHT22;10940;48.890;8.240;2022-10-26T07:48:47;13.70;99.90
21559;DHT22;10940;48.890;8.240;2022-10-26T07:51:12;13.60;99.90
21559;DHT22;10940;48.890;8.240;2022-10-26T07:53:38;13.70;99.90
21559;DHT22;10940;48.890;8.240;2022-10-26T07:56:04;13.80;99.90
21559;DHT22;10940;48.890;8.240;2022-10-26T07:58:30;13.80;99.90
21559;DHT22;10940;48.890;8.240;2022-10-26T08:00:56;13.90;99.90
21559;DHT22;10940;48.890;8.240;2022-10-26T08:03:22;14.00;99.90
21559;DHT22;10940;48.890;8.240;2022-10-26T08:05:48;14.00;99.90
21559;DHT22;10940;48.890;8.240;2022-10-26T08:08:19;14.10;99.90
21559;DHT22;10940;48.890;8.240;2022-10-26T08:10:45;14.20;99.90
21559;DHT22;10940;48.890;8.240;2022-10-26T08:13:11;14.30;99.90
21559;DHT22;10940;48.890;8.240;2022-10-26T08:15:37;14.40;99.90
21559;DHT22;10940;48.890;8.240;2022-10-26T08:18:04;14.40;99.90
21559;DHT22;10940;48.890;8.240;2022-10-26T08:20:29;14.50;99.90
21559;DHT22;10940;48.890;8.240;2022-10-26T08:22:55;14.60;99.90
21559;DHT22;10940;48.890;8.240;2022-10-26T08:25:21;14.60;99.90
21559;DHT22;10940;48.890;8.240;2022-10-26T08:27:47;14.70;99.90
21559;DHT22;10940;48.890;8.240;2022-10-26T08:30:13;14.80;99.90
21559;DHT22;10940;48.890;8.240;2022-10-26T08:32:38;14.80;99.90
21559;DHT22;10940;48.890;8.240;2022-10-26T08:35:05;14.90;99.90
21559;DHT22;10940;48.890;8.240;2022-10-26T08:37:30;14.90;99.90
21559;DHT22;10940;48.890;8.240;2022-10-26T08:39:56;15.00;99.90
21559;DHT22;10940;48.890;8.240;2022-10-26T08:42:32;15.20;99.90
21559;DHT22;10940;48.890;8.240;2022-10-26T08:45:49;15.20;99.90
21559;DHT22;10940;48.890;8.240;2022-10-26T08:47:58;15.40;99.90
21559;DHT22;10940;48.890;8.240;2022-10-26T08:50:30;15.60;99.90
21559;DHT22;10940;48.890;8.240;2022-10-26T08:55:42;15.80;99.90
21559;DHT22;10940;48.890;8.240;2022-10-26T08:58:14;16.00;99.90
21559;DHT22;10940;48.890;8.240;2022-10-26T09:00:40;16.10;99.90
21559;DHT22;10940;48.890;8.240;2022-10-26T09:03:17;16.20;99.90
21559;DHT22;10940;48.890;8.240;2022-10-26T09:08:46;16.20;99.90
21559;DHT22;10940;48.890;8.240;2022-10-26T09:24:30;16.70;99.90
21559;DHT22;10940;48.890;8.240;2022-10-26T09:29:41;16.90;99.90
21559;DHT22;10940;48.890;8.240;2022-10-26T09:32:18;17.00;99.90
21559;DHT22;10940;48.890;8.240;2022-10-26T09:34:48;17.10;99.90
21559;DHT22;10940;48.890;8.240;2022-10-26T09:37:27;17.10;99.90
21559;DHT22;10940;48.890;8.240;2022-10-26T09:40:14;17.30;99.90
21559;DHT22;10940;48.890;8.240;2022-10-26T09:42:59;17.40;99.90
21559;DHT22;10940;48.890;8.240;2022-10-26T09:45:34;17.50;99.90
21559;DHT22;10940;48.890;8.240;2022-10-26T09:48:13;17.60;99.90
21559;DHT22;10940;48.890;8.240;2022-10-26T09:50:44;17.70;99.90
21559;DHT22;10940;48.890;8.240;2022-10-26T09:53:11;17.70;99.90
21559;DHT22;10940;48.890;8.240;2022-10-26T09:55:42;17.80;99.90
21559;DHT22;10940;48.890;8.240;2022-10-26T09:58:23;17.90;99.90
21559;DHT22;10940;48.890;8.240;2022-10-26T10:00:51;18.00;99.90
21559;DHT22;10940;48.890;8.240;2022-10-26T10:03:35;18.10;99.90
21559;DHT22;10940;48.890;8.240;2022-10-26T10:06:17;18.30;99.90
21559;DHT22;10940;48.890;8.240;2022-10-26T10:09:10;18.40;99.90
21559;DHT22;10940;48.890;8.240;2022-10-26T10:11:42;18.50;99.90
21559;DHT22;10940;48.890;8.240;2022-10-26T10:14:16;18.60;99.90
21559;DHT22;10940;48.890;8.240;2022-10-26T10:16:50;18.70;99.90
21559;DHT22;10940;48.890;8.240;2022-10-26T10:19:22;18.80;99.90
21559;DHT22;10940;48.890;8.240;2022-10-26T10:21:50;18.90;99.90
21559;DHT22;10940;48.890;8.240;2022-10-26T10:24:25;18.90;99.90
21559;DHT22;10940;48.890;8.240;2022-10-26T10:29:50;19.00;99.90
21559;DHT22;10940;48.890;8.240;2022-10-26T10:34:47;19.10;99.90
21559;DHT22;10940;48.890;8.240;2022-10-26T10:40:02;19.20;99.90
21559;DHT22;10940;48.890;8.240;2022-10-26T10:42:33;19.30;99.90
21559;DHT22;10940;48.890;8.240;2022-10-26T10:45:00;19.30;99.90
21559;DHT22;10940;48.890;8.240;2022-10-26T10:47:34;19.40;99.90
21559;DHT22;10940;48.890;8.240;2022-10-26T10:50:06;19.50;99.90
21559;DHT22;10940;48.890;8.240;2022-10-26T10:52:34;19.60;99.90
21559;DHT22;10940;48.890;8.240;2022-10-26T10:57:45;19.80;99.90
21559;DHT22;10940;48.890;8.240;2022-10-26T11:00:14;19.80;99.90
21559;DHT22;10940;48.890;8.240;2022-10-26T11:02:56;20.00;99.90
21559;DHT22;10940;48.890;8.240;2022-10-26T11:05:32;20.10;99.90
21559;DHT22;10940;48.890;8.240;2022-10-26T11:10:33;20.40;99.90
21559;DHT22;10940;48.890;8.240;2022-10-26T11:13:03;20.50;99.90
21559;DHT22;10940;48.890;8.240;2022-10-26T11:15:34;20.50;99.90
21559;DHT22;10940;48.890;8.240;2022-10-26T11:18:06;20.60;99.90
21559;DHT22;10940;48.890;8.240;2022-10-26T11:20:38;20.70;99.90
21559;DHT22;10940;48.890;8.240;2022-10-26T11:23:22;20.70;99.90
21559;DHT22;10940;48.890;8.240;2022-10-26T11:25:55;20.80;99.90
21559;DHT22;10940;48.890;8.240;2022-10-26T11:31:17;20.80;99.90
21559;DHT22;10940;48.890;8.240;2022-10-26T11:33:58;20.90;99.90
21559;DHT22;10940;48.890;8.240;2022-10-26T11:36:27;20.90;99.90
21559;DHT22;10940;48.890;8.240;2022-10-26T11:39:04;20.90;99.90
21559;DHT22;10940;48.890;8.240;2022-10-26T11:41:48;20.80;99.90
21559;DHT22;10940;48.890;8.240;2022-10-26T11:44:27;20.70;99.90
21559;DHT22;10940;48.890;8.240;2022-10-26T11:47:02;20.60;99.90
21559;DHT22;10940;48.890;8.240;2022-10-26T11:49:49;20.50;99.90
21559;DHT22;10940;48.890;8.240;2022-10-26T11:52:23;20.60;99.90
21559;DHT22;10940;48.890;8.240;2022-10-26T11:57:16;20.60;99.90
21559;DHT22;10940;48.890;8.240;2022-10-26T11:59:51;20.60;99.90
21559;DHT22;10940;48.890;8.240;2022-10-26T12:02:24;20.70;99.90
21559;DHT22;10940;48.890;8.240;2022-10-26T12:05:02;20.70;99.90
21559;DHT22;10940;48.890;8.240;2022-10-26T12:07:31;20.80;99.90
21559;DHT22;10940;48.890;8.240;2022-10-26T12:09:58;20.90;99.90
21559;DHT22;10940;48.890;8.240;2022-10-26T12:12:40;20.90;99.90
21559;DHT22;10940;48.890;8.240;2022-10-26T12:17:55;21.00;99.90
21559;DHT22;10940;48.890;8.240;2022-10-26T12:20:59;21.10;99.90
21559;DHT22;10940;48.890;8.240;2022-10-26T12:31:53;21.70;99.90
21559;DHT22;10940;48.890;8.240;2022-10-26T12:34:23;21.90;99.90
21559;DHT22;10940;48.890;8.240;2022-10-26T12:39:40;22.20;99.90
21559;DHT22;10940;48.890;8.240;2022-10-26T12:42:26;22.20;99.90
21559;DHT22;10940;48.890;8.240;2022-10-26T12:49:58;22.30;99.90
21559;DHT22;10940;48.890;8.240;2022-10-26T12:55:14;22.20;99.90
21559;DHT22;10940;48.890;8.240;2022-10-26T13:00:16;22.20;99.90
21559;DHT22;10940;48.890;8.240;2022-10-26T13:08:09;22.10;99.90
21559;DHT22;10940;48.890;8.240;2022-10-26T13:10:40;22.10;99.90
21559;DHT22;10940;48.890;8.240;2022-10-26T13:13:20;22.10;99.90
21559;DHT22;10940;48.890;8.240;2022-10-26T13:15:53;22.20;99.90
21559;DHT22;10940;48.890;8.240;2022-10-26T13:18:20;22.20;99.90
21559;DHT22;10940;48.890;8.240;2022-10-26T13:23:33;22.30;99.90
21559;DHT22;10940;48.890;8.240;2022-10-26T13:26:14;22.40;99.90
21559;DHT22;10940;48.890;8.240;2022-10-26T13:28:50;22.40;99.90
21559;DHT22;10940;48.890;8.240;2022-10-26T13:36:42;22.50;99.90
21559;DHT22;10940;48.890;8.240;2022-10-26T13:39:14;22.50;99.90
21559;DHT22;10940;48.890;8.240;2022-10-26T13:41:43;22.50;99.90
21559;DHT22;10940;48.890;8.240;2022-10-26T13:47:03;22.60;99.90
21559;DHT22;10940;48.890;8.240;2022-10-26T13:49:35;22.60;99.90
21559;DHT22;10940;48.890;8.240;2022-10-26T13:52:03;22.60;99.90
21559;DHT22;10940;48.890;8.240;2022-10-26T13:54:35;22.60;99.90
21559;DHT22;10940;48.890;8.240;2022-10-26T13:57:10;22.60;99.90
21559;DHT22;10940;48.890;8.240;2022-10-26T13:59:41;22.60;99.90
21559;DHT22;10940;48.890;8.240;2022-10-26T14:04:45;22.60;99.90
21559;DHT22;10940;48.890;8.240;2022-10-26T14:07:17;22.60;99.90
21559;DHT22;10940;48.890;8.240;2022-10-26T14:09:52;22.60;99.90
21559;DHT22;10940;48.890;8.240;2022-10-26T14:12:19;22.60;99.90
21559;DHT22;10940;48.890;8.240;2022-10-26T14:14:45;22.50;99.90
21559;DHT22;10940;48.890;8.240;2022-10-26T14:17:19;22.50;99.90
21559;DHT22;10940;48.890;8.240;2022-10-26T14:19:45;22.50;99.90
21559;DHT22;10940;48.890;8.240;2022-10-26T14:22:30;22.50;99.90
21559;DHT22;10940;48.890;8.240;2022-10-26T14:24:58;22.50;99.90
21559;DHT22;10940;48.890;8.240;2022-10-26T14:27:26;22.50;99.90
21559;DHT22;10940;48.890;8.240;2022-10-26T14:29:53;22.40;99.90
21559;DHT22;10940;48.890;8.240;2022-10-26T14:32:29;22.40;99.90
21559;DHT22;10940;48.890;8.240;2022-10-26T14:34:56;22.30;99.90
21559;DHT22;10940;48.890;8.240;2022-10-26T14:37:35;22.30;99.90
21559;DHT22;10940;48.890;8.240;2022-10-26T14:40:01;22.30;99.90
21559;DHT22;10940;48.890;8.240;2022-10-26T14:42:38;22.20;99.90
21559;DHT22;10940;48.890;8.240;2022-10-26T14:45:04;22.20;99.90
21559;DHT22;10940;48.890;8.240;2022-10-26T14:47:32;22.20;99.90
21559;DHT22;10940;48.890;8.240;2022-10-26T14:49:59;22.10;99.90
21559;DHT22;10940;48.890;8.240;2022-10-26T14:52:29;22.10;99.90
21559;DHT22;10940;48.890;8.240;2022-10-26T14:55:09;22.00;99.90
21559;DHT22;10940;48.890;8.240;2022-10-26T14:57:39;22.00;99.90
21559;DHT22;10940;48.890;8.240;2022-10-26T15:00:21;22.00;99.90
21559;DHT22;10940;48.890;8.240;2022-10-26T15:02:49;21.90;99.90
21559;DHT22;10940;48.890;8.240;2022-10-26T15:07:49;21.70;99.90
21559;DHT22;10940;48.890;8.240;2022-10-26T15:13:27;21.70;99.90
21559;DHT22;10940;48.890;8.240;2022-10-26T15:15:56;21.60;99.90
21559;DHT22;10940;48.890;8.240;2022-10-26T15:18:23;21.50;99.90
21559;DHT22;10940;48.890;8.240;2022-10-26T15:20:50;21.40;99.90
21559;DHT22;10940;48.890;8.240;2022-10-26T15:23:18;21.30;99.90
21559;DHT22;10940;48.890;8.240;2022-10-26T15:25:53;21.10;99.90
21559;DHT22;10940;48.890;8.240;2022-10-26T15:28:29;21.00;99.90
21559;DHT22;10940;48.890;8.240;2022-10-26T15:33:38;20.80;99.90
21559;DHT22;10940;48.890;8.240;2022-10-26T15:36:41;20.70;99.90
21559;DHT22;10940;48.890;8.240;2022-10-26T15:39:02;20.50;99.90
21559;DHT22;10940;48.890;8.240;2022-10-26T15:41:32;20.30;99.90
21559;DHT22;10940;48.890;8.240;2022-10-26T15:44:02;20.20;99.90
21559;DHT22;10940;48.890;8.240;2022-10-26T15:46:32;20.10;99.90
21559;DHT22;10940;48.890;8.240;2022-10-26T15:49:00;19.90;99.90
21559;DHT22;10940;48.890;8.240;2022-10-26T15:51:26;19.80;99.90
21559;DHT22;10940;48.890;8.240;2022-10-26T15:54:00;19.70;99.90
21559;DHT22;10940;48.890;8.240;2022-10-26T15:56:26;19.50;99.90
21559;DHT22;10940;48.890;8.240;2022-10-26T15:58:53;19.40;99.90
21559;DHT22;10940;48.890;8.240;2022-10-26T16:01:21;19.20;99.90
21559;DHT22;10940;48.890;8.240;2022-10-26T16:03:48;19.10;99.90
21559;DHT22;10940;48.890;8.240;2022-10-26T16:08:51;18.90;99.90
21559;DHT22;10940;48.890;8.240;2022-10-26T16:11:17;18.80;99.90
21559;DHT22;10940;48.890;8.240;2022-10-26T16:13:43;18.70;99.90
21559;DHT22;10940;48.890;8.240;2022-10-26T16:16:13;18.60;99.90
21559;DHT22;10940;48.890;8.240;2022-10-26T16:18:39;18.40;99.90
21559;DHT22;10940;48.890;8.240;2022-10-26T16:21:05;18.20;99.90
21559;DHT22;10940;48.890;8.240;2022-10-26T16:23:30;18.10;99.90
21559;DHT22;10940;48.890;8.240;2022-10-26T16:25:56;17.90;99.90
21559;DHT22;10940;48.890;8.240;2022-10-26T16:28:22;17.80;99.90
21559;DHT22;10940;48.890;8.240;2022-10-26T16:30:47;17.70;99.90
21559;DHT22;10940;48.890;8.240;2022-10-26T16:33:13;17.70;99.90
21559;DHT22;10940;48.890;8.240;2022-10-26T16:35:39;17.70;99.90
21559;DHT22;10940;48.890;8.240;2022-10-26T16:38:04;17.70;99.90
21559;DHT22;10940;48.890;8.240;2022-10-26T16:40:30;17.70;99.90
21559;DHT22;10940;48.890;8.240;2022-10-26T16:42:56;17.60;99.90
21559;DHT22;10940;48.890;8.240;2022-10-26T16:45:21;17.60;99.90
21559;DHT22;10940;48.890;8.240;2022-10-26T16:47:47;17.60;99.90
21559;DHT22;10940;48.890;8.240;2022-10-26T16:50:12;17.60;99.90
21559;DHT22;10940;48.890;8.240;2022-10-26T16:52:39;17.50;99.90
21559;DHT22;10940;48.890;8.240;2022-10-26T16:55:06;17.50;99.90
21559;DHT22;10940;48.890;8.240;2022-10-26T16:57:34;17.40;99.90
21559;DHT22;10940;48.890;8.240;2022-10-26T17:00:00;17.30;99.90
21559;DHT22;10940;48.890;8.240;2022-10-26T17:02:26;17.30;99.90
21559;DHT22;10940;48.890;8.240;2022-10-26T17:04:51;17.20;99.90
21559;DHT22;10940;48.890;8.240;2022-10-26T17:07:17;17.00;99.90
21559;DHT22;10940;48.890;8.240;2022-10-26T17:09:43;16.90;99.90
21559;DHT22;10940;48.890;8.240;2022-10-26T17:12:08;16.80;99.90
21559;DHT22;10940;48.890;8.240;2022-10-26T17:14:36;16.70;99.90
21559;DHT22;10940;48.890;8.240;2022-10-26T17:17:02;16.60;99.90
21559;DHT22;10940;48.890;8.240;2022-10-26T17:19:27;16.60;99.90
21559;DHT22;10940;48.890;8.240;2022-10-26T17:21:53;16.60;99.90
21559;DHT22;10940;48.890;8.240;2022-10-26T17:24:19;16.60;99.90
21559;DHT22;10940;48.890;8.240;2022-10-26T17:26:44;16.60;99.90
21559;DHT22;10940;48.890;8.240;2022-10-26T17:29:12;16.60;99.90
21559;DHT22;10940;48.890;8.240;2022-10-26T17:31:38;16.60;99.90
21559;DHT22;10940;48.890;8.240;2022-10-26T17:34:03;16.60;99.90
21559;DHT22;10940;48.890;8.240;2022-10-26T17:36:29;16.60;99.90
21559;DHT22;10940;48.890;8.240;2022-10-26T17:38:56;16.60;99.90
21559;DHT22;10940;48.890;8.240;2022-10-26T17:41:22;16.50;99.90
21559;DHT22;10940;48.890;8.240;2022-10-26T17:43:48;16.50;99.90
21559;DHT22;10940;48.890;8.240;2022-10-26T17:46:19;16.40;99.90
21559;DHT22;10940;48.890;8.240;2022-10-26T17:48:45;16.30;99.90
21559;DHT22;10940;48.890;8.240;2022-10-26T17:51:16;16.30;99.90
21559;DHT22;10940;48.890;8.240;2022-10-26T17:53:41;16.30;99.90